Aérodrome :
LOGIN :

S'inscrire | Disclaimer

   EN    FR    IT 

 










Légende :    VFR   VFR Marginal   IFR   IFR Intensif   IFR Très Intensif
Visi : 
Plafond : 
>= 8 km
>= 3000ft
5 à 8 km
1000 à 3000 ft
1500m à 5 km
500 à 1000 ft
800 à 1500m
200 à 500 ft
< 800m
< 200 ft
Symboles :   Orages  Brouillard  Fortes neiges  Fortes précipitations  Vent > 20 kt
SIGMETs :   Divers  Orages  Givrage  Turbulence  Onde Orograph.  Cendres Volcan.






- Altitude de l'aérodrome : 53 ft
- Code IATA : HAM


EDDH - Hamburg

DERNIER METAR :
  • 282120Z AUTO 12006KT 9999 SCT046 05/03 Q1014 NOSIG

METARs EXPIRÉS :
  • 282050Z AUTO 10009KT CAVOK 04/03 Q1014 NOSIG
  • 282020Z AUTO 13006KT 090V150 9999 -RA FEW027 04/03 Q1014 NOSIG
  • 281950Z AUTO 12007KT 9999 SCT039 04/03 Q1014 NOSIG
  • 281920Z AUTO 11008KT 090V150 9999 FEW042 04/03 Q1014 NOSIG
  • 281850Z AUTO 12006KT 090V160 9999 FEW046 04/03 Q1014 NOSIG

TAF TAF EDDH
Valide du 28 à 18h jusqu'au 30 à 00h UTC


281700Z 2818/2924 09006KT 9999 FEW013 BKN035
PROB30
TEMPO 2818/2904 4500 -RADZ
BECMG 2902/2905 BKN013
TEMPO 2902/2911 OVC004
PROB30
TEMPO 2904/2908 2500 BR
PROB40
TEMPO 2913/2917 SCT013
BECMG 2920/2923 OVC006
TEMPO 2921/2924 2500 -RADZ BR OVC003



MET'MAP, la Météo Aéronautique d'un coup d'oeil ! - Copyright ORBIFLY Décembre 2007 - Disclaimer

ORBIFLY MET'MAP TEAM :

Programmation & Développement : Alexandra Zaïnal
Sur une idée originale de : Baudouin d'Aumeries
Soutien technique & logistique : Manuel Goepfert
Assistance : Marc-Olivier Méhu




SOURCES & CREDITS :

   NOAA